メインページ
METAR-TAF:

METAR-TAF

空港 :

ラ・アウロラ国際空港

グアテマラシティ, グアテマラ

緯度: 14-35N, 経度: 090-31W, 海抜: 1489m

現時点の気象観測

当レポートは26分前の06:00(UTC)に作成
の風 4kt
気温 17°C
湿度 88%
気圧 1025 hPa
視程10km以上
高度1400ftの雲は散在している
高度8000ftの雲は散在している

METAR: MGGT 200600Z 36004KT 9999 SCT014 SCT080 17/15 Q1025 A3027

時間: 00:26 (06:26 UTC)

予報

予報は20日の 00時(UTC)から 20日の 24時(UTC)まで有効
視程10km以上
高度1200ftの千切れ雲あり
高度8000ftの千切れ雲あり
20日の 00時(UTC)から 20日の 12時(UTC)まで一時的に
視程: 7000m
高度1000ftの千切れ雲あり
高度8000ftの曇り
雨, 霧雨
確率 40%
20日の 08時(UTC)から 20日の 14時(UTC)まで
視程: 1000m
高度800ftの千切れ雲あり
20日の 14時(UTC)から 20日の 16時(UTC)まで徐々に
高度1800ftの雲は散在している
間 18から01 UTC徐々に
20日の 19時(UTC)から 20日の 24時(UTC)まで一時的に
視程: 7000m
高度1800ftの雲は散在している, 塔状積雲.
高度2500ftの雲はほとんどない, 積乱雲.
激しい雷雨, 雨

TAF: MGGT 2000/2024 VRB03 9999 BKN012 BKN080 TX26/2020Z TN16/2012Z TEMPO 2000/2012 7000 RADZ BKN010 OVC080 PROB40 2008/2014 1000 BR BKN008 BECMG 2014/2016 SCT018 BECMG 18010KT TEMPO 2019/2024 7000 TSRA SCT018TCU FEW025CB

4,000以上の空港の気象観測と天気予報(METAR報とTAF報)

利用可能な観測所は地図上に黄色い丸と赤い丸で示す。

丸の上にカーソルを重ねると観測所名を参照できる。

次にクリックすると気象観測と天気予報を参照できる。

マップの切り替え:黒色「×」印の緑ボタンをクリックして拡大、「-」印の緑ボタンをクリックして縮小、緑色の三角印をクリックして隣りの地図に切り替え


METAR-TAF: